Aérodrome :
LOGIN :

S'inscrire | Disclaimer

   EN    FR    IT 

 










Légende :    VFR   VFR Marginal   IFR   IFR Intensif   IFR Très Intensif
Visi : 
Plafond : 
>= 8 km
>= 3000ft
5 à 8 km
1000 à 3000 ft
1500m à 5 km
500 à 1000 ft
800 à 1500m
200 à 500 ft
< 800m
< 200 ft
Symboles :   Orages  Brouillard  Fortes neiges  Fortes précipitations  Vent > 20 kt
SIGMETs :   Divers  Orages  Givrage  Turbulence  Onde Orograph.  Cendres Volcan.






- Altitude de l'aérodrome : 325 ft
- Code IATA : BES


LFRB - Brest

DERNIER METAR :
  • 281300Z AUTO 07015KT 040V100 CAVOK 26/07 Q1027 TEMPO 06015G25KT

METARs EXPIRÉS :
  • 281230Z AUTO 08014KT 040V110 CAVOK 25/08 Q1027 TEMPO 06015G25KT
  • 281200Z AUTO 09016KT 9999 2300 NSC 25/10 Q1028 TEMPO 06015G25KT
  • 281130Z AUTO 07017KT 9999 2800 NSC 24/10 Q1028 TEMPO 06015G25KT
  • 281100Z AUTO 07014KT CAVOK 24/10 Q1028 NOSIG
  • 281030Z AUTO 07013KT 040V100 CAVOK 24/11 Q1028 NOSIG

TAF TAF LFRB
Valide du 28 à 12h jusqu'au 29 à 18h UTC


281100Z 2812/2918 08010KT CAVOK
TEMPO 2812/2817 06015G25KT
ATIS : +33 2 98 32 02 71



MET'MAP, la Météo Aéronautique d'un coup d'oeil ! - Copyright ORBIFLY Décembre 2007 - Disclaimer

ORBIFLY MET'MAP TEAM :

Programmation & Développement : Alexandra Zaïnal
Sur une idée originale de : Baudouin d'Aumeries
Assistance à la programmation : Marc-Olivier Méhu
Soutien technique & logistique : Manuel Goepfert

Contact : metmap@orbifly.com




SOURCES & CREDITS :

   NOAA